createdAt,value
2019-03-10T00:01:09.912Z,35.60
2019-03-10T00:03:55.883Z,35.60
2019-03-10T00:06:42.383Z,36.20
2019-03-10T00:09:29.132Z,35.70
2019-03-10T00:12:15.531Z,35.70
2019-03-10T00:15:01.824Z,35.70
2019-03-10T00:17:49.299Z,35.70
2019-03-10T00:20:35.653Z,35.60
2019-03-10T00:23:21.899Z,36.20
2019-03-10T00:26:08.068Z,35.50
2019-03-10T00:28:54.371Z,35.50
2019-03-10T00:31:40.837Z,35.50
2019-03-10T00:34:27.227Z,35.60
2019-03-10T00:37:14.595Z,35.60
2019-03-10T00:40:42.035Z,35.70
2019-03-10T00:44:05.913Z,35.70
2019-03-10T00:47:52.259Z,35.70
2019-03-10T00:51:15.208Z,35.70
2019-03-10T00:54:01.043Z,36.20
2019-03-10T00:56:47.027Z,35.80
2019-03-10T00:59:33.284Z,35.80
2019-03-10T01:02:19.361Z,35.80
2019-03-10T01:05:05.723Z,35.80
2019-03-10T01:07:52.125Z,35.80
2019-03-10T01:10:38.412Z,35.80
2019-03-10T01:13:25.187Z,35.80
2019-03-10T01:16:11.841Z,35.80
2019-03-10T01:18:58.740Z,35.90
2019-03-10T01:21:45.755Z,35.90
2019-03-10T01:24:32.081Z,35.90
2019-03-10T01:27:18.552Z,35.90
2019-03-10T01:30:08.388Z,36.00
2019-03-10T01:33:31.368Z,36.00
2019-03-10T01:36:16.471Z,36.00
2019-03-10T01:39:05.831Z,36.00
2019-03-10T01:41:53.859Z,36.10
2019-03-10T01:44:40.135Z,36.10
2019-03-10T01:47:25.972Z,36.10
2019-03-10T01:50:12.991Z,36.10
2019-03-10T01:52:59.509Z,36.10
2019-03-10T01:55:45.823Z,36.20
2019-03-10T01:58:32.430Z,36.20
2019-03-10T02:01:18.247Z,36.20
2019-03-10T02:04:04.912Z,36.20
2019-03-10T02:06:52.251Z,36.10
2019-03-10T02:09:38.839Z,36.20
2019-03-10T02:12:25.112Z,36.20
2019-03-10T02:15:13.425Z,36.20
2019-03-10T02:17:59.268Z,36.20
2019-03-10T02:20:45.921Z,36.20
2019-03-10T02:23:32.255Z,36.30
2019-03-10T02:26:18.676Z,36.30
2019-03-10T02:29:04.963Z,36.30
2019-03-10T02:31:51.352Z,36.30
2019-03-10T02:34:37.593Z,36.30
2019-03-10T02:37:23.636Z,36.30
2019-03-10T02:40:09.883Z,36.40
2019-03-10T02:42:56.544Z,36.30
2019-03-10T02:45:42.946Z,36.30
2019-03-10T02:48:29.413Z,36.30
2019-03-10T02:51:15.640Z,36.40
2019-03-10T02:54:02.314Z,36.40
2019-03-10T02:56:48.465Z,36.40
2019-03-10T02:59:34.751Z,36.40
2019-03-10T03:02:21.216Z,36.50
2019-03-10T03:05:08.357Z,36.50
2019-03-10T03:07:54.495Z,36.60
2019-03-10T03:10:41.648Z,36.60
2019-03-10T03:13:27.966Z,36.60
2019-03-10T03:16:14.392Z,36.60
2019-03-10T03:19:00.923Z,36.60
2019-03-10T03:21:47.245Z,36.80
2019-03-10T03:24:33.617Z,36.60
2019-03-10T03:27:20.392Z,36.60
2019-03-10T03:30:07.840Z,36.60
2019-03-10T03:32:54.084Z,36.60
2019-03-10T03:36:05.413Z,36.60
2019-03-10T03:38:55.953Z,36.60
2019-03-10T03:41:42.335Z,36.60
2019-03-10T03:44:28.570Z,36.50
2019-03-10T03:47:14.859Z,36.50
2019-03-10T03:50:01.485Z,36.60
2019-03-10T03:52:47.660Z,36.50
2019-03-10T03:55:34.324Z,36.60
2019-03-10T03:58:21.859Z,36.60
2019-03-10T04:01:17.389Z,36.60
2019-03-10T04:04:03.826Z,36.60
2019-03-10T04:06:49.825Z,36.60
2019-03-10T04:09:36.210Z,36.60
2019-03-10T04:12:24.077Z,36.60
2019-03-10T04:15:10.729Z,36.50
2019-03-10T04:17:57.052Z,36.60
2019-03-10T04:20:43.507Z,36.60
2019-03-10T04:23:30.093Z,36.60
2019-03-10T04:26:16.196Z,36.60
2019-03-10T04:29:02.237Z,36.60
2019-03-10T04:31:48.472Z,36.60
2019-03-10T04:34:34.396Z,36.50
2019-03-10T04:37:20.569Z,36.60
2019-03-10T04:40:07.279Z,36.60
2019-03-10T04:42:53.453Z,36.50
2019-03-10T04:45:39.712Z,36.50
2019-03-10T04:48:25.926Z,36.50
2019-03-10T04:51:12.697Z,36.50
2019-03-10T04:53:58.959Z,36.50
2019-03-10T04:56:58.942Z,36.50
2019-03-10T04:59:45.057Z,36.50
2019-03-10T05:02:31.432Z,36.40
2019-03-10T05:05:17.344Z,36.40
2019-03-10T05:08:03.703Z,36.40
2019-03-10T05:10:49.975Z,36.40
2019-03-10T05:13:36.550Z,36.50
2019-03-10T05:16:22.905Z,36.30
2019-03-10T05:19:09.423Z,36.30
2019-03-10T05:21:56.959Z,36.30
2019-03-10T05:24:43.651Z,36.30
2019-03-10T05:27:29.428Z,36.20
2019-03-10T05:30:15.427Z,36.20
2019-03-10T05:33:01.584Z,36.20
2019-03-10T05:35:48.135Z,36.10
2019-03-10T05:38:34.399Z,36.10
2019-03-10T05:41:20.259Z,36.10
2019-03-10T05:44:06.165Z,36.10
2019-03-10T05:46:52.503Z,36.10
2019-03-10T05:49:38.207Z,36.10
2019-03-10T05:52:24.539Z,36.10
2019-03-10T05:55:10.347Z,36.10
2019-03-10T05:57:57.108Z,36.10
2019-03-10T06:00:43.693Z,36.10
2019-03-10T06:03:29.958Z,36.10
2019-03-10T06:06:16.299Z,36.10
2019-03-10T06:09:04.916Z,36.60
2019-03-10T06:11:51.407Z,35.90
2019-03-10T06:14:38.055Z,36.00
2019-03-10T06:17:24.413Z,36.10
2019-03-10T06:20:10.991Z,36.00
2019-03-10T06:22:57.456Z,36.00
2019-03-10T06:25:43.682Z,36.00
2019-03-10T06:28:29.879Z,36.00
2019-03-10T06:31:15.884Z,36.10
2019-03-10T06:34:02.244Z,36.10
2019-03-10T06:36:48.792Z,36.10
2019-03-10T06:39:35.096Z,36.10
2019-03-10T06:42:21.803Z,36.10
2019-03-10T06:45:08.304Z,36.10
2019-03-10T06:47:54.431Z,36.10
2019-03-10T06:50:40.236Z,36.00
2019-03-10T06:53:26.895Z,35.90
2019-03-10T06:56:13.381Z,35.90
2019-03-10T06:58:59.909Z,36.20
2019-03-10T07:01:46.239Z,35.80
2019-03-10T07:04:32.235Z,35.70
2019-03-10T07:07:18.451Z,35.60
2019-03-10T07:10:05.687Z,35.40
2019-03-10T07:12:51.609Z,35.20
2019-03-10T07:15:37.603Z,35.00
2019-03-10T07:18:24.183Z,34.90
2019-03-10T07:21:10.152Z,34.80
2019-03-10T07:23:56.416Z,34.80
2019-03-10T07:26:43.117Z,34.80
2019-03-10T07:29:32.919Z,35.40
2019-03-10T07:32:27.043Z,34.80
2019-03-10T07:35:31.285Z,34.90
2019-03-10T07:38:32.434Z,35.00
2019-03-10T07:41:43.716Z,35.00
2019-03-10T07:44:37.848Z,35.00
2019-03-10T07:47:34.159Z,35.00
2019-03-10T07:50:34.208Z,34.90
2019-03-10T07:53:42.828Z,34.70
2019-03-10T07:56:48.335Z,34.20
2019-03-10T07:59:57.133Z,33.70
2019-03-10T08:02:53.780Z,33.40
2019-03-10T08:06:02.624Z,33.30
2019-03-10T08:09:20.597Z,34.00
2019-03-10T08:12:22.305Z,33.30
2019-03-10T08:15:21.700Z,33.20
2019-03-10T08:18:19.884Z,33.20
2019-03-10T08:21:25.000Z,33.30
2019-03-10T08:24:37.036Z,33.50
2019-03-10T08:27:45.764Z,33.50
2019-03-10T08:30:57.520Z,33.70
2019-03-10T08:33:52.724Z,33.80
2019-03-10T08:36:45.500Z,33.90
2019-03-10T08:39:40.903Z,33.90
2019-03-10T08:42:40.191Z,33.80
2019-03-10T08:45:53.551Z,33.70
2019-03-10T08:48:59.529Z,33.60
2019-03-10T08:52:17.528Z,33.40
2019-03-10T08:55:36.043Z,32.90
2019-03-10T08:58:35.705Z,32.40
2019-03-10T09:01:36.979Z,31.90
2019-03-10T09:04:46.773Z,31.40
2019-03-10T09:07:39.163Z,31.60
2019-03-10T09:10:53.982Z,31.30
2019-03-10T09:13:54.563Z,31.60
2019-03-10T09:16:46.636Z,31.90
2019-03-10T09:19:48.479Z,32.30
2019-03-10T09:23:00.795Z,32.50
2019-03-10T09:25:54.996Z,32.70
2019-03-10T09:29:10.055Z,32.80
2019-03-10T09:32:13.671Z,32.80
2019-03-10T09:35:07.671Z,32.70
2019-03-10T09:37:59.640Z,32.70
2019-03-10T09:41:01.859Z,32.80
2019-03-10T09:44:16.905Z,32.90
2019-03-10T09:47:13.011Z,32.80
2019-03-10T09:50:15.607Z,32.50
2019-03-10T09:53:20.897Z,32.40
2019-03-10T09:56:29.452Z,32.50
2019-03-10T09:59:22.962Z,32.60
2019-03-10T10:02:21.959Z,32.80
2019-03-10T10:05:27.764Z,32.80
2019-03-10T10:08:45.420Z,32.80
2019-03-10T10:12:00.849Z,32.90
2019-03-10T10:15:11.899Z,33.00
2019-03-10T10:18:10.303Z,33.00
2019-03-10T10:21:21.296Z,32.90
2019-03-10T10:24:25.226Z,32.90
2019-03-10T10:27:20.227Z,33.00
2019-03-10T10:30:26.565Z,33.00
2019-03-10T10:33:32.356Z,33.20
2019-03-10T10:36:41.236Z,33.20
2019-03-10T10:39:52.508Z,33.20
2019-03-10T10:42:50.407Z,33.20
2019-03-10T10:45:50.449Z,33.20
2019-03-10T10:48:45.220Z,33.20
2019-03-10T10:51:43.416Z,33.20
2019-03-10T10:54:58.491Z,33.20
2019-03-10T10:58:06.204Z,33.30
2019-03-10T11:01:06.403Z,33.30
2019-03-10T11:04:14.981Z,33.80
2019-03-10T11:07:20.391Z,33.50
2019-03-10T11:10:16.003Z,33.70
2019-03-10T11:13:20.310Z,33.70
2019-03-10T11:16:21.979Z,33.80
2019-03-10T11:19:19.573Z,33.90
2019-03-10T11:22:21.413Z,33.80
2019-03-10T11:25:21.548Z,33.90
2019-03-10T11:28:22.284Z,34.00
2019-03-10T11:31:32.073Z,34.10
2019-03-10T11:34:40.511Z,34.10
2019-03-10T11:37:33.006Z,34.00
2019-03-10T11:40:40.719Z,34.20
2019-03-10T11:43:46.156Z,34.20
2019-03-10T11:46:38.779Z,34.30
2019-03-10T11:49:42.970Z,34.30
2019-03-10T11:52:48.795Z,34.40
2019-03-10T11:55:45.752Z,34.40
2019-03-10T11:58:39.693Z,34.40
2019-03-10T12:01:33.756Z,34.40
2019-03-10T12:04:42.111Z,34.40
2019-03-10T12:07:45.896Z,34.40
2019-03-10T12:10:32.075Z,34.50
2019-03-10T12:13:18.437Z,34.50
2019-03-10T12:16:04.402Z,34.60
2019-03-10T12:18:50.707Z,34.60
2019-03-10T12:21:36.865Z,34.70
2019-03-10T12:24:23.083Z,34.80
2019-03-10T12:27:09.271Z,34.80
2019-03-10T12:29:55.445Z,34.70
2019-03-10T12:32:41.593Z,34.80
2019-03-10T12:35:34.402Z,34.80
2019-03-10T12:38:15.500Z,34.80
2019-03-10T12:41:02.851Z,34.80
2019-03-10T12:43:49.069Z,34.90
2019-03-10T12:46:35.312Z,34.90
2019-03-10T12:49:21.405Z,34.90
2019-03-10T12:52:07.710Z,35.00
2019-03-10T12:54:54.024Z,35.00
2019-03-10T12:57:40.484Z,35.00
2019-03-10T13:00:26.741Z,35.10
2019-03-10T13:03:14.445Z,35.10
2019-03-10T13:06:00.596Z,35.20
2019-03-10T13:08:46.691Z,35.20
2019-03-10T13:11:32.472Z,35.20
2019-03-10T13:14:18.963Z,35.30
2019-03-10T13:17:05.184Z,35.20
2019-03-10T13:19:51.540Z,35.20
2019-03-10T13:22:38.103Z,35.60
2019-03-10T13:25:23.903Z,35.50
2019-03-10T13:28:10.393Z,35.60
2019-03-10T13:30:56.819Z,35.50
2019-03-10T13:33:43.124Z,35.70
2019-03-10T13:36:29.628Z,35.90
2019-03-10T13:39:16.095Z,35.90
2019-03-10T13:42:02.202Z,36.00
2019-03-10T13:44:48.211Z,36.00
2019-03-10T13:47:34.649Z,36.00
2019-03-10T13:50:21.917Z,36.00
2019-03-10T13:53:08.023Z,36.00
2019-03-10T13:55:54.335Z,36.10
2019-03-10T13:58:41.187Z,36.60
2019-03-10T14:01:27.649Z,36.00
2019-03-10T14:04:13.943Z,35.90
2019-03-10T14:06:59.769Z,35.90
2019-03-10T14:09:46.215Z,35.90
2019-03-10T14:12:31.963Z,36.00
2019-03-10T14:15:18.376Z,35.90
2019-03-10T14:18:04.560Z,36.00
2019-03-10T14:20:50.990Z,35.90
2019-03-10T14:23:37.279Z,35.90
2019-03-10T14:26:23.704Z,35.90
2019-03-10T14:29:10.004Z,35.90
2019-03-10T14:31:55.891Z,35.90
2019-03-10T14:34:42.764Z,35.90
2019-03-10T14:37:29.496Z,35.90
2019-03-10T14:40:15.999Z,35.80
2019-03-10T14:43:02.817Z,35.90
2019-03-10T14:45:48.796Z,35.80
2019-03-10T14:48:34.828Z,35.80
2019-03-10T14:51:21.454Z,35.80
2019-03-10T14:54:07.987Z,35.90
2019-03-10T14:56:53.992Z,35.80
2019-03-10T14:59:40.502Z,35.80
2019-03-10T15:02:27.193Z,35.80
2019-03-10T15:05:13.684Z,35.80
2019-03-10T15:07:59.959Z,35.80
2019-03-10T15:10:46.923Z,35.80
2019-03-10T15:13:33.124Z,35.80
2019-03-10T15:16:19.408Z,35.80
2019-03-10T15:19:05.688Z,35.80
2019-03-10T15:21:52.354Z,35.80
2019-03-10T15:24:38.486Z,35.80
2019-03-10T15:27:25.051Z,35.80
2019-03-10T15:30:14.162Z,35.90
2019-03-10T15:33:00.830Z,35.80
2019-03-10T15:35:47.200Z,35.90
2019-03-10T15:38:33.779Z,35.90
2019-03-10T15:41:19.824Z,35.80
2019-03-10T15:44:06.323Z,35.80
2019-03-10T15:46:52.740Z,35.80
2019-03-10T15:49:39.246Z,35.90
2019-03-10T15:52:25.632Z,35.90
2019-03-10T15:55:12.210Z,35.90
2019-03-10T15:57:58.481Z,36.00
2019-03-10T16:00:44.872Z,35.90
2019-03-10T16:03:31.143Z,36.00
2019-03-10T16:06:17.388Z,36.00
2019-03-10T16:09:04.665Z,36.10
2019-03-10T16:11:52.803Z,36.10
2019-03-10T16:14:39.080Z,36.20
2019-03-10T16:17:25.853Z,36.20
2019-03-10T16:20:12.815Z,36.20
2019-03-10T16:22:59.095Z,36.20
2019-03-10T16:25:44.988Z,36.20
2019-03-10T16:28:32.153Z,36.20
2019-03-10T16:31:18.328Z,36.20
2019-03-10T16:34:04.637Z,36.20
2019-03-10T16:36:51.012Z,36.20
2019-03-10T16:39:37.247Z,36.30
2019-03-10T16:42:23.197Z,36.30
2019-03-10T16:45:16.120Z,36.40
2019-03-10T16:48:02.049Z,36.30
2019-03-10T16:50:48.424Z,36.40
2019-03-10T16:53:34.357Z,36.30
2019-03-10T16:56:30.766Z,36.30
2019-03-10T16:59:17.087Z,36.40
2019-03-10T17:02:03.371Z,36.40
2019-03-10T17:04:49.701Z,36.30
2019-03-10T17:07:36.392Z,36.40
2019-03-10T17:10:22.713Z,36.40
2019-03-10T17:13:09.091Z,37.20
2019-03-10T17:15:55.527Z,36.40
2019-03-10T17:18:42.142Z,36.40
2019-03-10T17:21:28.067Z,36.40
2019-03-10T17:24:14.447Z,36.50
2019-03-10T17:27:00.925Z,36.40
2019-03-10T17:29:47.564Z,36.60
2019-03-10T17:32:33.839Z,36.50
2019-03-10T17:35:20.807Z,36.40
2019-03-10T17:38:06.923Z,36.50
2019-03-10T17:40:53.351Z,36.50
2019-03-10T17:43:39.641Z,36.50
2019-03-10T17:46:26.275Z,36.50
2019-03-10T17:49:12.515Z,36.60
2019-03-10T17:51:58.739Z,36.60
2019-03-10T17:54:45.148Z,36.60
2019-03-10T17:57:31.448Z,36.50
2019-03-10T18:00:19.503Z,36.60
2019-03-10T18:03:05.756Z,36.60
2019-03-10T18:05:51.990Z,36.50
2019-03-10T18:08:38.546Z,36.60
2019-03-10T18:11:25.043Z,36.50
2019-03-10T18:14:11.319Z,36.50
2019-03-10T18:16:57.589Z,36.40
2019-03-10T18:19:44.346Z,36.50
2019-03-10T18:22:30.542Z,36.60
2019-03-10T18:25:16.708Z,36.40
2019-03-10T18:28:06.022Z,36.40
2019-03-10T18:30:52.207Z,36.40
2019-03-10T18:33:38.458Z,36.50
2019-03-10T18:36:25.221Z,36.50
2019-03-10T18:39:11.439Z,36.40
2019-03-10T18:41:57.919Z,36.40
2019-03-10T18:44:44.233Z,36.40
2019-03-10T18:47:30.916Z,36.40
2019-03-10T18:50:17.239Z,36.30
2019-03-10T18:53:03.683Z,36.30
2019-03-10T18:55:50.081Z,36.30
2019-03-10T18:58:36.079Z,36.30
2019-03-10T19:01:22.562Z,36.20
2019-03-10T19:04:08.936Z,36.20
2019-03-10T19:06:54.752Z,36.20
2019-03-10T19:09:40.677Z,36.20
2019-03-10T19:12:26.907Z,36.10
2019-03-10T19:15:14.495Z,36.10
2019-03-10T19:18:00.459Z,36.00
2019-03-10T19:20:46.730Z,36.10
2019-03-10T19:23:33.192Z,36.10
2019-03-10T19:26:19.503Z,36.00
2019-03-10T19:29:05.671Z,36.00
2019-03-10T19:31:54.350Z,36.00
2019-03-10T19:34:40.381Z,36.10
2019-03-10T19:37:26.668Z,36.00
2019-03-10T19:40:13.734Z,36.00
2019-03-10T19:43:00.088Z,36.00
2019-03-10T19:45:46.397Z,36.00
2019-03-10T19:48:32.431Z,36.10
2019-03-10T19:51:18.731Z,36.00
2019-03-10T19:54:05.998Z,36.00
2019-03-10T19:56:52.388Z,36.00
2019-03-10T19:59:51.422Z,36.00
2019-03-10T20:02:37.778Z,35.90
2019-03-10T20:05:24.014Z,35.90
2019-03-10T20:08:10.348Z,35.90
2019-03-10T20:10:56.526Z,35.90
2019-03-10T20:13:42.807Z,35.90
2019-03-10T20:16:29.536Z,36.00
2019-03-10T20:19:17.049Z,35.90
2019-03-10T20:22:03.771Z,35.90
2019-03-10T20:24:50.110Z,35.90
2019-03-10T20:27:37.771Z,35.90
2019-03-10T20:30:23.519Z,35.90
2019-03-10T20:33:09.786Z,35.80
2019-03-10T20:35:56.220Z,35.80
2019-03-10T20:38:42.611Z,35.80
2019-03-10T20:41:28.989Z,35.70
2019-03-10T20:44:16.043Z,35.70
2019-03-10T20:47:02.331Z,35.60
2019-03-10T20:49:48.955Z,35.70
2019-03-10T20:52:35.132Z,35.60
2019-03-10T20:55:21.411Z,35.50
2019-03-10T20:58:07.867Z,35.50
2019-03-10T21:00:54.545Z,35.50
2019-03-10T21:03:40.768Z,35.60
2019-03-10T21:06:27.584Z,35.50
2019-03-10T21:09:13.789Z,35.50
2019-03-10T21:12:00.068Z,35.50
2019-03-10T21:14:46.532Z,35.50
2019-03-10T21:17:32.947Z,35.40
2019-03-10T21:20:19.214Z,35.40
2019-03-10T21:23:05.660Z,35.50
2019-03-10T21:25:51.917Z,35.40
2019-03-10T21:28:38.340Z,35.50
2019-03-10T21:31:24.743Z,35.40
2019-03-10T21:34:11.070Z,35.40
2019-03-10T21:36:57.360Z,35.30
2019-03-10T21:39:44.083Z,35.30
2019-03-10T21:42:32.267Z,35.40
2019-03-10T21:45:18.264Z,35.30
2019-03-10T21:48:04.815Z,35.40
2019-03-10T21:50:51.156Z,35.40
2019-03-10T21:53:37.506Z,35.30
2019-03-10T21:56:24.244Z,35.30
2019-03-10T21:59:10.620Z,35.30
2019-03-10T22:01:56.524Z,35.30
2019-03-10T22:04:43.011Z,35.40
2019-03-10T22:07:29.805Z,35.30
2019-03-10T22:10:26.393Z,35.30
2019-03-10T22:13:05.697Z,35.30
2019-03-10T22:15:51.907Z,35.30
2019-03-10T22:18:38.831Z,35.30
2019-03-10T22:21:25.309Z,35.30
2019-03-10T22:24:11.610Z,35.30
2019-03-10T22:26:57.953Z,35.30
2019-03-10T22:29:44.491Z,35.30
2019-03-10T22:32:30.692Z,35.30
2019-03-10T22:35:17.246Z,35.30
2019-03-10T22:38:04.638Z,35.20
2019-03-10T22:40:51.187Z,35.20
2019-03-10T22:43:37.468Z,35.10
2019-03-10T22:46:24.188Z,35.10
2019-03-10T22:49:10.440Z,35.10
2019-03-10T22:51:56.607Z,35.10
2019-03-10T22:54:43.066Z,35.00
2019-03-10T22:57:29.307Z,35.00
2019-03-10T23:00:17.332Z,34.90
2019-03-10T23:03:05.680Z,34.90
2019-03-10T23:05:51.909Z,34.90
2019-03-10T23:08:38.712Z,34.80
2019-03-10T23:11:25.125Z,34.80
2019-03-10T23:14:12.523Z,34.80
2019-03-10T23:16:58.762Z,34.80
2019-03-10T23:19:45.227Z,34.80
2019-03-10T23:22:31.507Z,34.70
2019-03-10T23:25:17.879Z,34.70
2019-03-10T23:28:04.143Z,34.70
2019-03-10T23:30:50.759Z,34.70
2019-03-10T23:33:36.640Z,34.70
2019-03-10T23:36:23.231Z,34.70
2019-03-10T23:39:09.711Z,34.70
2019-03-10T23:41:57.971Z,34.60
2019-03-10T23:44:43.951Z,34.60
2019-03-10T23:47:30.675Z,34.60
2019-03-10T23:50:17.950Z,34.60
2019-03-10T23:53:04.403Z,34.50
2019-03-10T23:55:50.602Z,34.50
2019-03-10T23:58:37.308Z,34.60
